Time;durP1;ratioP1;P1;durP2;ratioP2;P2;SDS_P1;SDS_P2;PMS_P1;PMS_P2;Temp;Humidity;BMP_temperature;BMP_pressure;BME280_temperature;BME280_humidity;BME280_pressure;Samples;Min_cycle;Max_cycle;Signal;HPM_P1;HPM_P2
2023/01/30 00:01:25;;;;;;;0.30;0.30;;;-0.30;99.90;;;-0.32;99.01;100295.97;4877270;29;20284;-68
2023/01/30 00:03:52;;;;;;;0.20;0.20;;;0.30;99.90;;;-0.32;98.55;100278.69;4849787;29;20232;-67
2023/01/30 00:06:20;;;;;;;0.30;0.30;;;-0.10;99.90;;;-0.36;98.45;100278.44;4849742;29;20328;-68
2023/01/30 00:08:47;;;;;;;0.30;0.30;;;0.20;99.90;;;-0.44;98.57;100270.28;4863664;29;20312;-68
2023/01/30 00:11:16;;;;;;;1.30;1.30;;;-0.10;99.90;;;-0.46;98.90;100284.00;4848873;29;20241;-68
2023/01/30 00:13:43;;;;;;;0.20;0.20;;;-0.20;99.90;;;-0.44;98.85;100285.84;4864004;29;20252;-69
2023/01/30 00:16:11;;;;;;;0.40;0.40;;;-0.30;99.90;;;-0.36;98.59;100294.03;4845616;29;20300;-68
2023/01/30 00:18:40;;;;;;;0.30;0.30;;;-0.10;99.90;;;-0.36;98.56;100283.66;4853596;29;20279;-68
2023/01/30 00:21:10;;;;;;;0.25;0.25;;;0.00;99.90;;;-0.36;98.48;100292.31;4850459;29;20244;-68
2023/01/30 00:23:38;;;;;;;0.40;0.40;;;-0.10;99.90;;;-0.38;98.50;100293.06;4884087;29;20236;-68
2023/01/30 00:26:06;;;;;;;0.30;0.30;;;0.00;99.90;;;-0.43;98.87;100279.84;4861059;29;20269;-68
2023/01/30 00:28:34;;;;;;;0.30;0.30;;;-0.20;99.90;;;-0.44;99.20;100278.06;4862694;29;20244;-67
2023/01/30 00:31:01;;;;;;;0.20;0.20;;;-0.20;99.90;;;-0.47;99.02;100264.03;4849594;29;20672;-68
2023/01/30 00:33:29;;;;;;;0.30;0.30;;;-0.20;99.90;;;-0.55;99.49;100271.44;4847444;29;20243;-68
2023/01/30 00:35:56;;;;;;;0.20;0.20;;;-0.10;99.90;;;-0.55;99.56;100267.94;4848642;29;20368;-68
2023/01/30 00:38:24;;;;;;;0.20;0.20;;;-0.30;99.90;;;-0.48;99.89;100277.84;4861491;29;20273;-67
2023/01/30 00:40:51;;;;;;;0.20;0.20;;;0.00;99.90;;;-0.44;99.59;100288.47;4865572;29;20232;-68
2023/01/30 00:49:15;;;;;;;0.30;0.30;;;-0.30;99.90;;;-0.47;100.00;100303.00;4864573;29;20312;-69
2023/01/30 00:51:42;;;;;;;0.30;0.30;;;-0.20;99.90;;;-0.48;100.00;100307.31;4853689;29;20252;-69
2023/01/30 00:54:09;;;;;;;0.20;0.20;;;-0.30;99.90;;;-0.48;100.00;100298.63;4869045;29;20280;-69
2023/01/30 00:56:36;;;;;;;0.20;0.20;;;-0.20;99.90;;;-0.51;100.00;100291.56;4866666;29;20270;-68
2023/01/30 00:59:03;;;;;;;0.30;0.30;;;-0.30;99.90;;;-0.46;100.00;100302.19;4867791;29;20252;-68
2023/01/30 01:01:30;;;;;;;0.20;0.20;;;-0.20;99.90;;;-0.20;100.00;100306.97;4885250;29;20721;-68
2023/01/30 01:03:57;;;;;;;0.20;0.20;;;-0.10;99.90;;;-0.12;100.00;100294.34;4867870;29;20297;-68
2023/01/30 01:06:24;;;;;;;0.30;0.30;;;0.10;99.90;;;-0.07;100.00;100287.69;4851586;29;20768;-68
2023/01/30 01:08:51;;;;;;;0.20;0.20;;;0.20;99.90;;;-0.18;100.00;100265.47;4853022;29;20252;-68
2023/01/30 01:11:24;;;;;;;0.30;0.30;;;0.30;99.90;;;-0.50;100.00;100245.69;4847754;29;20292;-68
2023/01/30 01:13:55;;;;;;;0.20;0.20;;;-0.20;99.90;;;-0.65;100.00;100235.44;4847998;29;20236;-68
2023/01/30 01:16:23;;;;;;;0.30;0.30;;;-0.30;99.90;;;-0.72;100.00;100239.44;4865438;29;20236;-68
2023/01/30 01:18:51;;;;;;;0.52;0.52;;;-0.20;99.90;;;-0.66;100.00;100241.44;4850790;29;20384;-68
2023/01/30 01:21:19;;;;;;;0.20;0.20;;;-0.40;99.90;;;-0.73;100.00;100244.53;4858677;29;20737;-68
2023/01/30 01:23:57;;;;;;;0.20;0.20;;;-0.40;99.90;;;-0.73;100.00;100245.44;4866677;29;20244;-68
2023/01/30 01:26:25;;;;;;;0.30;0.30;;;-0.40;99.90;;;-0.75;100.00;100233.19;4867657;29;20244;-68
2023/01/30 01:28:58;;;;;;;0.30;0.30;;;-0.50;99.90;;;-0.78;100.00;100241.72;4871403;29;20236;-68
2023/01/30 01:31:26;;;;;;;0.38;0.38;;;-0.50;99.90;;;-0.77;100.00;100234.81;4877206;29;20244;-68
2023/01/30 01:33:53;;;;;;;0.73;0.73;;;-0.50;99.90;;;-0.72;100.00;100244.63;4862327;29;20228;-68
2023/01/30 01:36:20;;;;;;;0.20;0.20;;;-0.20;99.90;;;-0.63;100.00;100256.28;4855277;29;20326;-68
2023/01/30 01:39:07;;;;;;;0.20;0.20;;;-0.40;99.90;;;-0.68;100.00;100241.38;4879260;29;20242;-68
2023/01/30 01:41:34;;;;;;;0.30;0.30;;;-0.50;99.90;;;-0.78;100.00;100252.09;4867312;29;20293;-68
2023/01/30 01:44:09;;;;;;;0.20;0.20;;;-0.50;99.90;;;-0.78;100.00;100225.25;4848481;29;20256;-68
2023/01/30 01:46:51;;;;;;;0.20;0.20;;;-0.50;99.90;;;-0.83;100.00;100235.41;4864360;29;20239;-68
2023/01/30 01:49:29;;;;;;;0.20;0.20;;;-0.60;99.90;;;-0.83;100.00;100247.50;4868819;29;20239;-68
2023/01/30 01:52:03;;;;;;;0.20;0.20;;;-0.60;99.90;;;-0.85;100.00;100243.94;4867069;29;20323;-68
2023/01/30 01:54:54;;;;;;;0.30;0.30;;;-0.60;99.90;;;-0.90;100.00;100219.44;4844584;29;20701;-68
2023/01/30 01:58:11;;;;;;;0.30;0.30;;;-0.60;99.90;;;-0.95;100.00;100220.91;4866125;29;20235;-68
2023/01/30 02:00:38;;;;;;;0.20;0.20;;;-0.70;99.90;;;-0.96;100.00;100222.59;4854338;29;20233;-68
2023/01/30 02:03:13;;;;;;;0.25;0.25;;;-0.60;99.90;;;-0.99;100.00;100219.84;4846085;29;20288;-67
2023/01/30 02:05:45;;;;;;;2.00;1.90;;;-0.70;99.90;;;-1.01;100.00;100206.81;4866547;29;20259;-67
2023/01/30 02:08:28;;;;;;;0.30;0.30;;;-0.80;99.90;;;-1.01;100.00;100200.72;4885123;29;20293;-68
2023/01/30 02:10:57;;;;;;;0.20;0.20;;;-0.80;99.90;;;-1.02;100.00;100192.03;4855906;29;20236;-67
2023/01/30 02:13:26;;;;;;;0.20;0.20;;;-0.80;99.90;;;-0.92;100.00;100193.41;4868725;29;20270;-68
2023/01/30 02:15:57;;;;;;;0.30;0.30;;;-0.50;99.90;;;-0.89;100.00;100190.97;4869065;29;20312;-68
2023/01/30 02:18:24;;;;;;;0.20;0.20;;;-0.70;99.90;;;-0.87;100.00;100191.94;4858028;29;20240;-68
2023/01/30 02:21:15;;;;;;;0.20;0.20;;;-0.60;99.90;;;-0.86;100.00;100206.69;4864925;29;20276;-69
2023/01/30 02:24:26;;;;;;;0.30;0.30;;;-0.60;99.90;;;-0.79;100.00;100206.19;4885603;29;20758;-68
2023/01/30 02:27:14;;;;;;;0.20;0.20;;;-0.60;99.90;;;-0.78;100.00;100220.06;4871804;29;20288;-68
2023/01/30 02:29:50;;;;;;;0.20;0.20;;;-0.50;99.90;;;-0.76;100.00;100215.81;4872305;29;20232;-68
2023/01/30 02:33:14;;;;;;;0.30;0.30;;;-0.50;99.90;;;-0.74;100.00;100216.81;4869793;29;22021;-69
2023/01/30 02:36:14;;;;;;;3.30;1.23;;;-0.50;99.90;;;-0.73;100.00;100223.78;4862186;29;20324;-69
2023/01/30 02:39:09;;;;;;;0.20;0.20;;;-0.40;99.90;;;-0.71;100.00;100228.22;4861142;29;20269;-70
2023/01/30 02:41:59;;;;;;;0.20;0.20;;;-0.50;99.90;;;-0.70;100.00;100214.44;4862629;29;20331;-69
2023/01/30 02:44:49;;;;;;;0.20;0.20;;;-0.50;99.90;;;-0.72;100.00;100189.22;4856187;29;20236;-69
2023/01/30 02:47:38;;;;;;;0.88;0.88;;;-0.40;99.90;;;-0.72;100.00;100190.09;4866523;29;20260;-68
2023/01/30 02:50:40;;;;;;;0.20;0.20;;;-0.50;99.90;;;-0.70;100.00;100201.44;4866893;29;20292;-69
2023/01/30 02:53:08;;;;;;;0.20;0.20;;;-0.50;99.90;;;-0.71;100.00;100212.66;4862635;29;20228;-70
2023/01/30 02:55:35;;;;;;;0.20;0.20;;;-0.40;99.90;;;-0.68;100.00;100230.09;4861720;29;20240;-68
2023/01/30 02:58:03;;;;;;;0.20;0.20;;;-0.40;99.90;;;-0.68;100.00;100243.97;4874027;29;20276;-69
2023/01/30 03:00:49;;;;;;;0.28;0.28;;;-0.40;99.90;;;-0.65;100.00;100253.63;4857923;29;20323;-68
2023/01/30 03:03:46;;;;;;;0.22;0.22;;;0.00;99.90;;;-0.61;100.00;100247.75;4865950;29;20292;-68
2023/01/30 03:06:38;;;;;;;0.63;0.63;;;-0.40;99.90;;;-0.57;100.00;100244.50;4874709;29;20236;-68
2023/01/30 03:09:11;;;;;;;0.20;0.20;;;-0.30;99.90;;;-0.55;100.00;100247.19;4882786;29;20237;-68
2023/01/30 03:12:08;;;;;;;0.30;0.30;;;-0.30;99.90;;;-0.54;100.00;100238.56;4868014;29;20302;-68
2023/01/30 03:15:11;;;;;;;0.30;0.30;;;-0.30;99.90;;;-0.52;100.00;100240.44;4878702;29;20243;-69
2023/01/30 03:17:42;;;;;;;0.25;0.25;;;-0.30;99.90;;;-0.50;100.00;100237.91;4861900;29;20232;-68
2023/01/30 03:20:10;;;;;;;0.20;0.20;;;-0.30;99.90;;;-0.46;100.00;100245.94;4857763;29;20284;-69
2023/01/30 03:22:37;;;;;;;0.40;0.40;;;-0.20;99.90;;;-0.45;100.00;100250.31;4855079;29;20260;-68
2023/01/30 03:25:06;;;;;;;0.20;0.20;;;-0.20;99.90;;;-0.37;100.00;100266.28;4848895;29;20244;-69
2023/01/30 03:27:34;;;;;;;0.30;0.30;;;-0.20;99.90;;;-0.35;100.00;100267.25;4874967;29;20233;-68
2023/01/30 03:30:01;;;;;;;0.20;0.20;;;0.10;99.90;;;-0.24;100.00;100278.16;4861075;29;20241;-68
2023/01/30 03:32:28;;;;;;;0.30;0.30;;;0.50;99.90;;;-0.30;100.00;100262.28;4865365;29;20322;-69
2023/01/30 03:34:55;;;;;;;0.30;0.30;;;0.10;99.90;;;-0.17;100.00;100275.03;4846196;29;20264;-69
2023/01/30 03:37:22;;;;;;;0.20;0.20;;;0.00;99.90;;;-0.13;100.00;100283.06;4862351;29;20315;-69
2023/01/30 03:39:49;;;;;;;0.25;0.25;;;0.20;99.90;;;-0.19;100.00;100271.47;4861356;29;20277;-68
2023/01/30 03:42:16;;;;;;;0.30;0.30;;;0.10;99.90;;;-0.18;100.00;100273.25;4844752;29;20251;-68
2023/01/30 03:44:43;;;;;;;0.30;0.30;;;0.10;99.90;;;-0.24;100.00;100276.44;4864667;29;20232;-69
2023/01/30 03:47:10;;;;;;;0.20;0.20;;;0.00;99.90;;;-0.20;100.00;100277.50;4848732;29;20315;-69
2023/01/30 03:49:37;;;;;;;0.30;0.30;;;0.30;99.90;;;-0.20;100.00;100282.69;4847645;29;20240;-68
2023/01/30 03:52:04;;;;;;;0.20;0.20;;;0.20;99.90;;;-0.23;100.00;100277.34;4856709;29;20240;-68
2023/01/30 03:54:31;;;;;;;0.20;0.20;;;0.00;99.90;;;-0.21;100.00;100283.50;4868298;29;20257;-69
2023/01/30 03:56:58;;;;;;;0.20;0.20;;;0.90;99.90;;;-0.14;100.00;100288.19;4867233;29;20757;-68
2023/01/30 03:59:25;;;;;;;0.20;0.20;;;0.10;99.90;;;-0.14;100.00;100281.28;4850819;29;20323;-68
2023/01/30 04:01:53;;;;;;;0.20;0.20;;;0.10;99.90;;;-0.14;100.00;100290.78;4852952;29;20308;-68
2023/01/30 04:04:20;;;;;;;0.20;0.20;;;0.10;99.90;;;-0.12;100.00;100281.34;4856269;29;20248;-69
2023/01/30 04:06:47;;;;;;;0.50;0.50;;;0.10;99.90;;;-0.11;100.00;100297.03;4859384;29;20327;-68
2023/01/30 04:09:14;;;;;;;0.57;0.57;;;0.30;99.90;;;-0.12;100.00;100296.97;4858168;29;20666;-69
2023/01/30 04:11:41;;;;;;;0.20;0.20;;;0.10;99.90;;;-0.10;100.00;100284.94;4874672;29;20625;-68
2023/01/30 04:14:08;;;;;;;0.28;0.28;;;0.10;99.90;;;-0.12;100.00;100286.56;4858990;29;20241;-68
2023/01/30 04:16:35;;;;;;;0.20;0.20;;;0.10;99.90;;;-0.10;100.00;100284.94;4872611;29;20321;-68
2023/01/30 04:19:02;;;;;;;0.30;0.30;;;0.10;99.90;;;-0.10;100.00;100290.13;4855888;29;20247;-69
2023/01/30 04:21:29;;;;;;;0.20;0.20;;;0.10;99.90;;;-0.10;100.00;100279.72;4852994;29;20294;-69
2023/01/30 04:23:56;;;;;;;0.20;0.20;;;0.30;99.90;;;-0.07;100.00;100269.47;4854827;29;20773;-68
2023/01/30 04:26:23;;;;;;;0.20;0.20;;;0.20;99.90;;;-0.05;100.00;100266.13;4870017;29;20280;-68
2023/01/30 04:28:50;;;;;;;0.20;0.20;;;0.20;99.90;;;-0.03;100.00;100271.41;4858296;29;20251;-68
2023/01/30 04:31:17;;;;;;;0.30;0.30;;;0.30;99.90;;;0.04;100.00;100265.72;4874250;29;21347;-68
2023/01/30 04:33:44;;;;;;;0.20;0.20;;;0.20;99.90;;;0.08;100.00;100256.38;4858291;29;20320;-69
2023/01/30 04:36:11;;;;;;;0.20;0.20;;;0.40;99.90;;;0.19;100.00;100265.56;4860295;29;20326;-69
2023/01/30 04:38:39;;;;;;;0.40;0.40;;;0.60;99.90;;;0.13;100.00;100273.06;4859328;29;20542;-68
2023/01/30 04:41:06;;;;;;;0.20;0.20;;;0.40;99.90;;;0.25;100.00;100281.47;4866117;29;20236;-68
2023/01/30 04:43:33;;;;;;;0.30;0.30;;;0.40;99.90;;;0.30;100.00;100293.84;4866571;29;20307;-69
2023/01/30 04:46:00;;;;;;;0.20;0.20;;;0.60;99.90;;;0.29;100.00;100289.47;4864909;29;20240;-69
2023/01/30 04:48:27;;;;;;;0.32;0.32;;;0.50;99.90;;;0.26;100.00;100291.03;4863283;29;20676;-69
2023/01/30 04:50:55;;;;;;;0.13;0.13;;;0.50;99.90;;;0.25;100.00;100291.84;4884880;29;20280;-69
2023/01/30 04:53:23;;;;;;;0.20;0.20;;;0.50;99.90;;;0.29;100.00;100293.78;4856909;29;20315;-69
2023/01/30 04:55:51;;;;;;;0.30;0.30;;;0.60;99.90;;;0.30;100.00;100282.56;4878317;29;20394;-69
2023/01/30 04:58:18;;;;;;;0.20;0.20;;;0.50;99.90;;;0.28;100.00;100276.41;4851482;29;20232;-69
2023/01/30 05:00:45;;;;;;;0.20;0.20;;;0.50;99.90;;;0.35;100.00;100272.38;4856744;29;20336;-68
2023/01/30 05:03:13;;;;;;;0.20;0.20;;;0.50;99.90;;;0.29;100.00;100258.25;4872090;29;20236;-69
2023/01/30 05:05:40;;;;;;;0.10;0.10;;;0.60;99.90;;;0.26;100.00;100236.44;4870585;29;20288;-69
2023/01/30 05:08:07;;;;;;;0.20;0.20;;;0.50;99.90;;;0.24;100.00;100259.75;4886385;29;20271;-71
2023/01/30 05:10:34;;;;;;;0.20;0.20;;;0.50;99.90;;;0.22;100.00;100264.00;4854084;29;20296;-70
2023/01/30 05:13:04;;;;;;;0.20;0.20;;;0.40;99.90;;;0.17;100.00;100267.19;4880042;29;20236;-70
2023/01/30 05:15:32;;;;;;;0.20;0.20;;;0.40;99.90;;;0.10;100.00;100271.22;4851992;29;20320;-70
2023/01/30 05:18:00;;;;;;;0.20;0.20;;;0.40;99.90;;;0.07;100.00;100285.78;4859362;29;20233;-70
2023/01/30 05:20:27;;;;;;;0.20;0.20;;;0.30;99.90;;;0.04;100.00;100294.31;4873333;29;20319;-71
2023/01/30 05:22:54;;;;;;;0.98;0.98;;;0.30;99.90;;;0.04;100.00;100298.63;4876543;29;20245;-70
2023/01/30 05:25:20;;;;;;;0.30;0.30;;;0.60;99.90;;;0.04;100.00;100285.63;4860556;29;20291;-70
2023/01/30 05:27:47;;;;;;;0.30;0.30;;;0.30;99.90;;;0.02;100.00;100267.34;4853603;29;20268;-70
2023/01/30 05:30:15;;;;;;;0.20;0.20;;;0.30;99.90;;;0.01;100.00;100269.88;4871453;29;20236;-70
2023/01/30 05:32:42;;;;;;;2.85;0.80;;;0.20;99.90;;;-0.05;100.00;100278.25;4856893;29;20242;-70
2023/01/30 05:35:09;;;;;;;0.20;0.20;;;0.20;99.90;;;-0.11;100.00;100268.44;4868546;29;20236;-70
2023/01/30 05:37:36;;;;;;;0.20;0.20;;;0.10;99.90;;;-0.10;100.00;100265.03;4873267;29;20315;-70
2023/01/30 05:40:05;;;;;;;0.20;0.20;;;0.10;99.90;;;-0.11;100.00;100258.03;4851405;29;20651;-70
2023/01/30 05:42:32;;;;;;;0.10;0.10;;;0.10;99.90;;;-0.06;100.00;100253.97;4853514;29;20236;-70
2023/01/30 05:44:59;;;;;;;0.20;0.20;;;0.20;99.90;;;-0.09;100.00;100253.81;4868483;29;20744;-70
2023/01/30 05:47:30;;;;;;;0.20;0.20;;;0.10;99.90;;;-0.10;100.00;100277.13;4871130;29;20232;-70
2023/01/30 05:50:02;;;;;;;0.20;0.20;;;0.10;99.90;;;-0.09;100.00;100287.59;4868437;29;20292;-70
2023/01/30 05:52:30;;;;;;;0.20;0.20;;;0.10;99.90;;;-0.05;100.00;100292.13;4866984;29;20284;-70
2023/01/30 05:54:57;;;;;;;0.20;0.20;;;0.20;99.90;;;-0.06;100.00;100295.53;4855267;29;20244;-69
2023/01/30 05:57:24;;;;;;;0.10;0.10;;;0.20;99.90;;;-0.06;100.00;100299.84;4871406;29;20335;-70
2023/01/30 05:59:51;;;;;;;0.20;0.20;;;0.20;99.90;;;-0.07;100.00;100308.47;4882404;29;20680;-70
2023/01/30 06:02:18;;;;;;;0.30;0.30;;;0.20;99.90;;;-0.15;100.00;100310.69;4867344;29;20243;-69
2023/01/30 06:04:45;;;;;;;0.20;0.20;;;0.20;99.90;;;-0.18;100.00;100320.94;4854462;29;20685;-69
2023/01/30 06:07:13;;;;;;;0.20;0.20;;;0.20;99.90;;;-0.18;100.00;100315.75;4851376;29;20289;-70
2023/01/30 06:09:40;;;;;;;0.20;0.20;;;0.20;99.90;;;-0.17;100.00;100319.22;4853955;29;20267;-70
2023/01/30 06:12:08;;;;;;;0.20;0.20;;;0.10;99.90;;;-0.16;100.00;100321.91;4883605;23;20232;-70
2023/01/30 06:14:35;;;;;;;0.10;0.10;;;0.10;99.90;;;-0.11;100.00;100316.94;4882498;29;20627;-70
2023/01/30 06:17:02;;;;;;;0.20;0.20;;;0.20;99.90;;;-0.07;100.00;100314.56;4885119;29;20236;-70
2023/01/30 06:19:29;;;;;;;0.20;0.20;;;0.40;99.90;;;-0.05;100.00;100312.03;4901783;29;20240;-70
2023/01/30 06:21:56;;;;;;;0.20;0.20;;;0.90;99.90;;;-0.04;100.00;100299.13;4875180;29;20323;-70
2023/01/30 06:24:23;;;;;;;1.27;1.10;;;0.20;99.90;;;0.01;100.00;100317.56;4845445;29;20235;-70
2023/01/30 06:26:50;;;;;;;0.40;0.40;;;0.20;99.90;;;0.12;100.00;100324.19;4844903;29;20298;-69
2023/01/30 06:29:17;;;;;;;0.20;0.20;;;0.40;99.90;;;0.28;100.00;100333.63;4860068;29;20262;-69
2023/01/30 06:31:44;;;;;;;0.20;0.20;;;0.50;99.90;;;0.29;100.00;100338.00;4870856;29;20279;-69
2023/01/30 06:34:11;;;;;;;0.20;0.20;;;0.60;99.90;;;0.26;100.00;100340.44;4873325;29;20312;-69
2023/01/30 06:36:38;;;;;;;0.20;0.20;;;0.50;99.90;;;0.21;100.00;100335.03;4861255;29;20256;-69
2023/01/30 06:39:05;;;;;;;0.20;0.20;;;0.40;99.90;;;0.23;100.00;100346.41;4854853;29;20267;-69
2023/01/30 06:41:32;;;;;;;0.20;0.20;;;0.50;99.90;;;0.20;100.00;100353.16;4847542;29;20264;-69
2023/01/30 06:43:59;;;;;;;0.20;0.20;;;0.40;99.90;;;0.21;100.00;100371.44;4844772;29;20259;-69
2023/01/30 06:46:26;;;;;;;0.20;0.20;;;0.40;99.90;;;0.28;100.00;100373.53;4881518;29;20267;-69
2023/01/30 06:48:53;;;;;;;0.20;0.20;;;0.70;99.90;;;0.23;100.00;100372.41;4871618;29;20739;-69
2023/01/30 06:51:20;;;;;;;0.20;0.20;;;0.50;99.90;;;0.17;100.00;100379.00;4858055;29;20319;-70
2023/01/30 06:53:47;;;;;;;0.75;0.75;;;0.40;99.90;;;0.14;100.00;100361.56;4880143;29;20295;-69
2023/01/30 06:56:15;;;;;;;0.20;0.20;;;0.40;99.90;;;0.12;100.00;100365.78;4858343;29;20273;-71
2023/01/30 06:58:42;;;;;;;0.10;0.10;;;0.90;99.90;;;0.15;100.00;100367.66;4875781;29;20236;-69
2023/01/30 07:01:09;;;;;;;0.20;0.20;;;0.40;99.90;;;0.17;100.00;100345.22;4864304;29;20319;-69
2023/01/30 07:06:18;;;;;;;0.20;0.20;;;0.40;99.90;;;0.20;100.00;100341.06;5262517;23;20228;-73
2023/01/30 07:08:46;;;;;;;0.20;0.20;;;0.40;99.90;;;0.30;100.00;100339.78;4871939;29;20276;-78
2023/01/30 07:11:14;;;;;;;0.20;0.20;;;0.50;99.90;;;0.61;100.00;100361.25;4883588;29;20239;-75
2023/01/30 07:13:41;;;;;;;0.10;0.10;;;1.40;99.90;;;1.03;100.00;100394.41;4897801;29;20240;-73
2023/01/30 07:16:08;;;;;;;0.25;0.25;;;1.10;99.90;;;1.21;100.00;100408.28;4900632;29;20275;-74
2023/01/30 07:18:35;;;;;;;0.20;0.20;;;1.60;99.90;;;1.32;100.00;100409.69;4894520;29;20324;-74
2023/01/30 07:21:02;;;;;;;0.20;0.20;;;1.20;99.90;;;1.38;100.00;100407.34;4901391;29;20238;-74
2023/01/30 07:23:29;;;;;;;0.20;0.20;;;1.50;99.90;;;1.43;100.00;100411.06;4896909;29;20318;-74
2023/01/30 07:25:56;;;;;;;0.20;0.20;;;1.70;99.90;;;1.38;100.00;100402.16;4895228;29;20314;-75
2023/01/30 07:28:23;;;;;;;0.10;0.10;;;1.50;99.90;;;1.42;100.00;100388.44;4895798;29;20259;-75
2023/01/30 07:30:51;;;;;;;0.10;0.10;;;1.70;99.90;;;1.41;100.00;100386.66;4895782;29;20760;-74
2023/01/30 07:33:19;;;;;;;0.63;0.63;;;1.50;99.90;;;1.40;100.00;100376.16;4983663;23;20316;-80
2023/01/30 07:35:46;;;;;;;0.10;0.10;;;2.40;99.90;;;1.39;100.00;100379.59;4873739;29;20247;-80
2023/01/30 07:38:13;;;;;;;0.55;0.55;;;2.50;99.90;;;1.38;100.00;100377.81;4890957;29;20228;-81
2023/01/30 07:40:40;;;;;;;0.20;0.20;;;1.70;99.90;;;1.40;100.00;100389.19;4890134;29;20243;-79
2023/01/30 07:43:11;;;;;;;0.20;0.20;;;1.60;99.90;;;1.41;100.00;100406.59;4895951;29;20266;-80
2023/01/30 07:45:40;;;;;;;0.20;0.20;;;1.70;99.90;;;1.40;100.00;100410.03;4888136;29;20296;-79
2023/01/30 07:48:10;;;;;;;0.20;0.20;;;1.60;99.90;;;1.41;100.00;100420.53;4888668;29;20244;-78
2023/01/30 07:50:38;;;;;;;0.20;0.20;;;1.60;99.90;;;1.46;100.00;100390.34;4893651;29;20236;-77
2023/01/30 07:53:08;;;;;;;0.20;0.20;;;1.60;99.90;;;1.42;100.00;100380.63;4888291;29;20334;-77
2023/01/30 07:55:35;;;;;;;0.20;0.20;;;1.70;99.90;;;1.42;100.00;100398.84;4908599;29;20288;-78
2023/01/30 07:58:03;;;;;;;0.40;0.40;;;1.70;99.90;;;1.44;100.00;100389.38;4887340;29;20231;-77
2023/01/30 08:03:13;;;;;;;0.20;0.20;;;1.60;99.90;;;1.52;100.00;100393.22;4880815;29;20227;-76
2023/01/30 08:05:40;;;;;;;0.28;0.28;;;1.70;99.90;;;1.55;100.00;100397.69;4892708;29;20244;-74
2023/01/30 08:08:07;;;;;;;0.20;0.20;;;2.00;99.90;;;1.62;100.00;100407.56;4905561;29;20234;-73
2023/01/30 08:10:34;;;;;;;0.20;0.20;;;1.80;99.90;;;1.68;100.00;100407.81;4890944;29;20228;-73
2023/01/30 08:13:02;;;;;;;0.20;0.20;;;1.80;99.90;;;1.84;100.00;100425.03;4873240;29;20301;-73
2023/01/30 08:15:30;;;;;;;0.80;0.80;;;2.00;99.90;;;1.76;100.00;100424.69;4869427;29;20324;-72
2023/01/30 08:17:58;;;;;;;0.13;0.13;;;2.00;99.90;;;1.86;100.00;100433.81;4863301;29;20244;-72
2023/01/30 08:20:27;;;;;;;0.20;0.20;;;2.00;99.90;;;1.77;100.00;100426.47;4870903;29;20288;-73
2023/01/30 08:22:54;;;;;;;0.20;0.20;;;2.00;99.90;;;1.86;100.00;100434.69;4867579;29;20243;-75
2023/01/30 08:25:22;;;;;;;0.15;0.15;;;2.00;99.90;;;1.79;100.00;100436.97;4871027;29;20233;-74
2023/01/30 08:27:49;;;;;;;0.20;0.20;;;2.00;99.90;;;1.81;100.00;100440.53;4871445;29;20231;-74
2023/01/30 08:30:18;;;;;;;0.10;0.10;;;2.10;99.90;;;1.78;100.00;100428.25;4872077;29;20233;-73
2023/01/30 08:32:45;;;;;;;0.35;0.35;;;2.00;99.90;;;1.80;100.00;100431.81;4868399;29;20244;-72
2023/01/30 08:35:13;;;;;;;0.82;0.82;;;2.30;99.90;;;1.86;100.00;100436.41;4865240;29;20255;-72
2023/01/30 08:37:42;;;;;;;0.20;0.20;;;2.00;99.90;;;1.99;100.00;100410.03;4871168;29;20248;-72
2023/01/30 08:40:10;;;;;;;0.20;0.20;;;2.20;99.90;;;1.96;100.00;100419.44;4874521;29;20245;-72
2023/01/30 08:42:37;;;;;;;0.30;0.30;;;2.10;99.90;;;1.83;100.00;100418.91;4867781;29;20315;-73
2023/01/30 08:45:05;;;;;;;0.38;0.38;;;1.90;99.90;;;1.87;100.00;100420.84;4870330;29;20240;-72
2023/01/30 08:47:34;;;;;;;0.52;0.52;;;2.10;99.90;;;1.93;100.00;100415.00;4870996;29;20288;-72
2023/01/30 08:50:03;;;;;;;0.20;0.20;;;2.30;99.90;;;2.03;100.00;100419.78;4877584;29;20237;-74
2023/01/30 08:52:32;;;;;;;0.20;0.20;;;2.30;99.90;;;2.04;100.00;100403.31;4872724;29;20237;-75
2023/01/30 08:55:00;;;;;;;0.17;0.17;;;2.20;99.90;;;2.02;100.00;100424.94;4872713;29;20227;-73
2023/01/30 08:57:27;;;;;;;0.20;0.20;;;2.90;99.90;;;2.23;100.00;100437.16;4865818;29;20236;-75
2023/01/30 08:59:54;;;;;;;0.20;0.20;;;2.30;99.90;;;2.14;100.00;100431.56;4870505;29;20261;-75
2023/01/30 09:02:21;;;;;;;0.20;0.20;;;2.30;99.90;;;2.13;100.00;100436.72;4869294;29;20256;-74
2023/01/30 09:04:48;;;;;;;0.20;0.20;;;2.40;99.90;;;2.35;100.00;100436.78;4871353;29;20236;-78
2023/01/30 09:07:15;;;;;;;0.25;0.25;;;2.50;99.90;;;2.60;100.00;100448.25;4873963;29;20240;-76
2023/01/30 09:09:42;;;;;;;0.20;0.20;;;2.70;99.90;;;2.25;100.00;100421.56;4865073;29;20329;-77
2023/01/30 09:12:09;;;;;;;0.22;0.22;;;2.50;99.90;;;2.20;100.00;100413.56;4888217;29;20733;-76
2023/01/30 09:14:36;;;;;;;1.55;0.93;;;2.40;99.90;;;2.21;100.00;100412.72;4875018;29;20295;-77
2023/01/30 09:17:02;;;;;;;0.20;0.20;;;2.30;99.90;;;2.09;100.00;100416.53;4876190;29;20335;-78
2023/01/30 09:19:30;;;;;;;0.20;0.20;;;2.30;99.90;;;1.98;100.00;100412.59;4871785;29;20233;-76
2023/01/30 09:21:57;;;;;;;0.82;0.80;;;2.10;99.90;;;1.97;100.00;100413.41;4871806;29;20240;-76
2023/01/30 09:24:25;;;;;;;2.67;0.95;;;2.20;99.90;;;2.25;100.00;100429.41;4875857;29;20260;-76
2023/01/30 09:26:57;;;;;;;0.20;0.20;;;2.50;99.90;;;2.17;100.00;100425.56;4879826;29;20259;-76
2023/01/30 09:29:26;;;;;;;0.73;0.73;;;2.40;99.90;;;1.92;100.00;100418.44;4871779;29;20727;-76
2023/01/30 09:31:57;;;;;;;0.10;0.10;;;2.30;99.90;;;1.89;100.00;100418.28;4873271;29;20248;-77
2023/01/30 09:34:27;;;;;;;0.20;0.20;;;2.10;99.90;;;1.91;100.00;100420.16;4868954;29;20235;-77
2023/01/30 09:36:59;;;;;;;0.20;0.20;;;2.10;99.90;;;1.95;100.00;100435.91;4871124;29;20326;-74
2023/01/30 09:39:30;;;;;;;0.20;0.20;;;2.30;99.90;;;1.98;100.00;100429.13;4873216;29;20259;-73
2023/01/30 09:42:03;;;;;;;0.77;0.77;;;2.10;99.90;;;2.04;100.00;100437.22;4872334;29;20244;-74
2023/01/30 09:45:35;;;;;;;0.17;0.17;;;2.20;99.90;;;2.10;100.00;100429.66;4881679;29;20280;-74
2023/01/30 09:48:24;;;;;;;0.20;0.20;;;2.20;99.90;;;2.07;100.00;100428.63;4850519;29;20243;-73
2023/01/30 09:51:20;;;;;;;0.13;0.13;;;2.20;99.90;;;2.05;100.00;100440.72;4861857;29;20260;-73
2023/01/30 09:54:02;;;;;;;0.40;0.40;;;2.20;99.90;;;2.08;100.00;100440.84;4868967;29;20760;-73
2023/01/30 09:56:30;;;;;;;0.20;0.20;;;2.20;99.90;;;2.24;100.00;100445.88;4869423;29;20336;-73
2023/01/30 09:59:02;;;;;;;0.20;0.20;;;2.30;99.90;;;2.16;100.00;100449.88;4872974;29;20564;-73
2023/01/30 10:02:08;;;;;;;0.20;0.20;;;2.50;99.90;;;2.13;100.00;100465.41;4896326;29;20315;-73
2023/01/30 10:04:44;;;;;;;0.20;0.20;;;2.30;99.90;;;2.11;100.00;100469.66;4862137;29;20232;-74
2023/01/30 10:08:03;;;;;;;0.20;0.20;;;2.30;99.90;;;2.07;100.00;100468.63;4863564;29;20323;-73
2023/01/30 10:10:49;;;;;;;0.20;0.20;;;2.30;99.90;;;2.10;100.00;100476.59;4866894;29;20260;-73
2023/01/30 10:14:04;;;;;;;0.20;0.20;;;2.30;99.90;;;2.08;100.00;100465.22;4869468;29;20242;-73
2023/01/30 10:17:02;;;;;;;0.20;0.20;;;2.30;99.90;;;2.11;100.00;100472.28;4910299;23;20314;-76
2023/01/30 10:20:05;;;;;;;0.63;0.63;;;2.30;99.90;;;2.01;100.00;100460.56;4872696;29;20255;-74
2023/01/30 10:22:44;;;;;;;0.10;0.10;;;2.20;99.90;;;2.02;100.00;100474.47;4899592;29;20236;-76
2023/01/30 10:25:32;;;;;;;0.20;0.20;;;2.30;99.90;;;2.00;100.00;100458.78;4880541;29;20267;-77
2023/01/30 10:28:23;;;;;;;0.20;0.20;;;2.20;99.90;;;2.01;100.00;100452.72;4899964;29;20252;-77
2023/01/30 10:30:58;;;;;;;0.10;0.10;;;2.30;99.90;;;2.01;100.00;100457.94;4900256;29;20246;-74
2023/01/30 10:33:34;;;;;;;0.20;0.20;;;2.20;99.90;;;2.05;100.00;100467.69;4884430;29;20291;-74
2023/01/30 10:36:23;;;;;;;0.45;0.45;;;2.20;99.90;;;2.07;100.00;100471.25;4896634;29;20238;-75
2023/01/30 10:38:52;;;;;;;0.20;0.20;;;2.20;99.90;;;2.06;100.00;100469.47;4903558;29;20237;-74
2023/01/30 10:42:00;;;;;;;0.20;0.20;;;2.20;99.90;;;2.07;100.00;100486.91;4896132;29;20771;-74
2023/01/30 10:44:28;;;;;;;0.20;0.20;;;2.20;99.90;;;2.08;100.00;100473.03;4886329;29;20239;-74
2023/01/30 10:47:44;;;;;;;0.20;0.20;;;2.20;99.90;;;2.08;100.00;100491.28;4892139;29;20303;-74